createdAt,value
2022-08-21T00:03:21.998Z,100389.75
2022-08-21T00:08:32.059Z,100385.19
2022-08-21T00:13:38.183Z,100364.97
2022-08-21T00:18:45.066Z,100403.63
2022-08-21T00:23:53.694Z,100404.97
2022-08-21T00:28:57.075Z,100380.81
2022-08-21T00:34:00.780Z,100391.97
2022-08-21T00:39:03.529Z,100398.91
2022-08-21T00:44:07.731Z,100384.50
2022-08-21T00:49:09.333Z,100384.25
2022-08-21T00:54:19.070Z,100379.72
2022-08-21T00:59:22.320Z,100341.63
2022-08-21T01:04:26.094Z,100379.72
2022-08-21T01:09:33.049Z,100321.38
2022-08-21T01:14:43.374Z,100335.78
2022-08-21T01:19:45.005Z,100330.97
2022-08-21T01:24:54.802Z,100342.69
2022-08-21T01:29:59.863Z,100312.03
2022-08-21T01:35:04.042Z,100303.22
2022-08-21T01:40:08.586Z,100316.56
2022-08-21T01:45:16.210Z,100323.78
2022-08-21T01:50:18.022Z,100299.28
2022-08-21T01:55:19.765Z,100322.22
2022-08-21T02:00:28.382Z,100312.31
2022-08-21T02:05:30.448Z,100301.41
2022-08-21T02:10:39.316Z,100301.41
2022-08-21T02:15:44.646Z,100305.91
2022-08-21T02:20:54.131Z,100293.94
2022-08-21T02:25:58.184Z,100272.88
2022-08-21T02:31:02.594Z,100258.50
2022-08-21T02:36:05.000Z,100276.88
2022-08-21T02:41:04.944Z,100279.28
2022-08-21T02:46:07.784Z,100289.03
2022-08-21T02:51:21.540Z,100290.31
2022-08-21T02:56:25.160Z,100275.66
2022-08-21T03:01:31.103Z,100265.28
2022-08-21T03:06:32.124Z,100257.50
2022-08-21T03:11:33.230Z,100286.59
2022-08-21T03:16:35.281Z,100245.00
2022-08-21T03:21:34.987Z,100262.03
2022-08-21T03:26:40.137Z,100266.91
2022-08-21T03:31:41.286Z,100281.34
2022-08-21T03:36:42.842Z,100246.72
2022-08-21T03:41:48.403Z,100232.38
2022-08-21T03:46:50.177Z,100240.38
2022-08-21T03:51:59.145Z,100253.47
2022-08-21T03:56:58.463Z,100233.72
2022-08-21T04:02:04.241Z,100249.72
2022-08-21T04:07:03.182Z,100245.16
2022-08-21T04:12:01.882Z,100240.34
2022-08-21T04:17:02.444Z,100303.00
2022-08-21T04:22:00.998Z,100305.13
2022-08-21T04:27:01.109Z,100338.44
2022-08-21T04:31:59.777Z,100373.66
2022-08-21T04:36:57.328Z,100368.81
2022-08-21T04:41:57.889Z,100330.47
2022-08-21T04:46:58.105Z,100317.94
2022-08-21T04:52:01.565Z,100342.19
2022-08-21T04:57:10.252Z,100359.44
2022-08-21T05:02:10.232Z,100348.56
2022-08-21T05:07:14.301Z,100382.09
2022-08-21T05:12:13.143Z,100364.22
2022-08-21T05:17:13.338Z,100371.69
2022-08-21T05:22:25.521Z,100370.34
2022-08-21T05:27:27.863Z,100354.06
2022-08-21T05:32:32.761Z,100351.69
2022-08-21T05:37:30.964Z,100352.19
2022-08-21T05:42:29.357Z,100375.00
2022-08-21T05:47:30.254Z,100342.53
2022-08-21T05:52:30.565Z,100355.72
2022-08-21T05:57:31.211Z,100362.94
2022-08-21T06:02:32.686Z,100359.66
2022-08-21T06:07:34.896Z,100354.78
2022-08-21T06:12:33.485Z,100348.00
2022-08-21T06:17:31.925Z,100360.28
2022-08-21T06:22:33.079Z,100355.97
2022-08-21T06:27:31.473Z,100352.66
2022-08-21T06:32:31.175Z,100329.91
2022-08-21T06:37:44.897Z,100394.41
2022-08-21T06:42:49.953Z,100355.22
2022-08-21T06:47:51.282Z,100384.13
2022-08-21T06:53:09.697Z,100345.09
2022-08-21T06:58:12.188Z,100342.38
2022-08-21T07:03:48.826Z,100350.34
2022-08-21T07:08:47.132Z,100352.47
2022-08-21T07:13:46.249Z,100374.63
2022-08-21T07:18:49.961Z,100350.00
2022-08-21T07:23:53.374Z,100374.78
2022-08-21T07:28:54.490Z,100356.59
2022-08-21T07:33:56.216Z,100344.91
2022-08-21T07:39:03.215Z,100340.88
2022-08-21T07:44:04.381Z,100322.78
2022-08-21T07:49:11.579Z,100359.38
2022-08-21T07:54:17.329Z,100327.19
2022-08-21T07:59:18.605Z,100311.09
2022-08-21T08:04:17.089Z,100315.88
2022-08-21T08:09:18.997Z,100319.44
2022-08-21T08:14:46.567Z,100339.78
2022-08-21T08:19:47.163Z,100306.94
2022-08-21T08:24:50.909Z,100336.19
2022-08-21T08:29:49.515Z,100319.75
2022-08-21T08:34:52.830Z,100285.13
2022-08-21T08:39:53.985Z,100283.28
2022-08-21T08:45:02.343Z,100293.91
2022-08-21T08:50:27.235Z,100315.94
2022-08-21T08:55:39.633Z,100289.59
2022-08-21T09:00:41.982Z,100264.31
2022-08-21T09:06:07.916Z,100311.75
2022-08-21T09:11:21.011Z,100275.78
2022-08-21T09:16:50.578Z,100294.47
2022-08-21T09:22:05.971Z,100295.44
2022-08-21T09:27:15.951Z,100288.91
2022-08-21T09:32:40.659Z,100241.44
2022-08-21T09:38:08.470Z,100239.53
2022-08-21T09:43:25.209Z,100228.44
2022-08-21T09:48:35.429Z,100219.72
2022-08-21T09:53:44.123Z,100208.78
2022-08-21T09:58:48.016Z,100244.59
2022-08-21T10:03:52.457Z,100237.78
2022-08-21T10:08:52.086Z,100208.78
2022-08-21T10:14:13.915Z,100222.25
2022-08-21T10:19:21.174Z,100222.81
2022-08-21T10:24:30.947Z,100216.97
2022-08-21T10:29:53.404Z,100210.09
2022-08-21T10:35:17.970Z,100181.53
2022-08-21T10:40:29.621Z,100200.09
2022-08-21T10:46:05.273Z,100196.91
2022-08-21T10:51:41.672Z,100169.94
2022-08-21T10:56:44.176Z,100146.34
2022-08-21T11:01:57.080Z,100150.06
2022-08-21T11:07:03.900Z,100127.28
2022-08-21T11:12:30.970Z,100137.00
2022-08-21T11:17:49.392Z,100111.50
2022-08-21T11:23:13.583Z,100113.56
2022-08-21T11:28:19.733Z,100139.44
2022-08-21T11:33:36.973Z,100128.38
2022-08-21T11:38:42.175Z,100117.47
2022-08-21T11:43:55.919Z,100109.66
2022-08-21T11:49:38.005Z,100077.09
2022-08-21T11:54:49.876Z,100069.50
2022-08-21T12:01:02.497Z,100090.34
2022-08-21T12:06:24.374Z,100062.88
2022-08-21T12:11:36.825Z,100077.28
2022-08-21T12:16:52.275Z,100062.13
2022-08-21T12:22:23.102Z,100070.47
2022-08-21T12:27:31.372Z,100037.06
2022-08-21T12:32:51.039Z,100026.03
2022-08-21T12:38:31.328Z,100054.97
2022-08-21T12:43:40.036Z,100026.75
2022-08-21T12:49:19.784Z,100033.00
2022-08-21T12:54:32.877Z,100016.59
2022-08-21T12:59:36.088Z,100025.00
2022-08-21T13:04:43.291Z,100018.69
2022-08-21T13:09:50.886Z,100025.63
2022-08-21T13:15:00.323Z,100039.06
2022-08-21T13:20:32.126Z,100081.50
2022-08-21T13:25:48.547Z,100083.28
2022-08-21T13:30:59.883Z,100054.13
2022-08-21T13:36:45.404Z,100088.63
2022-08-21T13:42:13.703Z,100097.38
2022-08-21T13:47:20.514Z,100054.34
2022-08-21T13:52:29.682Z,100078.50
2022-08-21T13:57:43.908Z,100065.47
2022-08-21T14:02:56.660Z,100068.69
2022-08-21T14:08:14.588Z,100092.69
2022-08-21T14:13:39.067Z,100075.16
2022-08-21T14:18:46.513Z,100088.06
2022-08-21T14:23:46.253Z,100064.31
2022-08-21T14:28:48.472Z,100084.59
2022-08-21T14:33:50.562Z,100064.63
2022-08-21T14:38:53.390Z,100043.69
2022-08-21T14:44:09.183Z,100084.84
2022-08-21T14:49:18.662Z,100077.16
2022-08-21T14:54:18.895Z,100049.91
2022-08-21T14:59:57.002Z,100060.13
2022-08-21T15:05:14.327Z,100080.25
2022-08-21T15:10:52.461Z,100043.75
2022-08-21T15:15:57.315Z,100034.19
2022-08-21T15:20:55.926Z,100017.53
2022-08-21T15:31:33.220Z,100007.25
2022-08-21T15:36:50.320Z,100024.94
2022-08-21T15:41:58.770Z,100013.47
2022-08-21T15:47:02.168Z,100026.56
2022-08-21T15:52:05.510Z,100074.50
2022-08-21T15:57:03.800Z,100055.59
2022-08-21T16:02:02.622Z,100058.34
2022-08-21T16:07:06.425Z,100058.34
2022-08-21T16:12:12.907Z,100020.53
2022-08-21T16:17:39.085Z,100015.66
2022-08-21T16:22:56.685Z,100060.38
2022-08-21T16:28:13.703Z,100050.09
2022-08-21T16:33:28.477Z,100063.31
2022-08-21T16:38:30.727Z,100097.47
2022-08-21T16:43:38.440Z,100040.72
2022-08-21T16:54:15.025Z,100064.31
2022-08-21T16:59:13.831Z,100043.84
2022-08-21T17:04:12.563Z,100049.72
2022-08-21T17:09:14.015Z,100064.84
2022-08-21T17:14:49.712Z,100110.94
2022-08-21T17:19:57.745Z,100110.53
2022-08-21T17:25:10.548Z,100144.50
2022-08-21T17:30:15.788Z,100161.25
2022-08-21T17:35:38.070Z,100150.41
2022-08-21T17:41:12.686Z,100189.41
2022-08-21T17:46:33.494Z,100217.72
2022-08-21T17:52:00.987Z,100209.63
2022-08-21T17:57:19.701Z,100239.34
2022-08-21T18:02:25.327Z,100233.13
2022-08-21T18:07:32.682Z,100235.59
2022-08-21T18:12:40.410Z,100220.94
2022-08-21T18:17:41.614Z,100235.75
2022-08-21T18:22:44.505Z,100235.09
2022-08-21T18:28:14.661Z,100245.72
2022-08-21T18:33:16.705Z,100270.75
2022-08-21T18:38:35.135Z,100241.81
2022-08-21T18:43:34.075Z,100244.44
2022-08-21T18:48:36.681Z,100228.81
2022-08-21T18:53:43.711Z,100198.88
2022-08-21T18:59:02.280Z,100205.91
2022-08-21T19:04:08.950Z,100218.72
2022-08-21T19:09:23.456Z,100203.25
2022-08-21T19:14:29.210Z,100203.44
2022-08-21T19:19:32.417Z,100190.78
2022-08-21T19:24:49.967Z,100178.84
2022-08-21T19:30:14.393Z,100155.50
2022-08-21T19:35:22.267Z,100175.59
2022-08-21T19:40:25.299Z,100155.38
2022-08-21T19:45:26.526Z,100154.34
2022-08-21T19:50:32.383Z,100159.66
2022-08-21T19:55:30.521Z,100156.31
2022-08-21T20:00:33.713Z,100165.13
2022-08-21T20:10:54.524Z,100185.22
2022-08-21T20:15:53.934Z,100175.38
2022-08-21T20:20:53.336Z,100141.50
2022-08-21T20:25:54.126Z,100148.69
2022-08-21T20:30:53.195Z,100133.31
2022-08-21T20:35:52.418Z,100127.72
2022-08-21T20:40:52.974Z,100125.19
2022-08-21T20:45:51.885Z,100133.56
2022-08-21T20:50:52.678Z,100112.50
2022-08-21T20:55:54.128Z,100117.28
2022-08-21T21:00:54.220Z,100145.25
2022-08-21T21:05:59.185Z,100158.28
2022-08-21T21:11:14.861Z,100123.06
2022-08-21T21:16:18.426Z,100123.66
2022-08-21T21:21:36.248Z,100131.25
2022-08-21T21:26:57.818Z,100138.84
2022-08-21T21:31:57.543Z,100133.53
2022-08-21T21:37:05.965Z,100140.44
2022-08-21T21:42:32.808Z,100173.22
2022-08-21T21:47:48.448Z,100154.53
2022-08-21T21:53:12.458Z,100201.16
2022-08-21T21:58:43.633Z,100209.44
2022-08-21T22:04:28.379Z,100216.63
2022-08-21T22:09:32.588Z,100225.41
2022-08-21T22:14:38.688Z,100226.50
2022-08-21T22:19:40.960Z,100220.13
2022-08-21T22:24:44.718Z,100189.19
2022-08-21T22:29:52.395Z,100202.78
2022-08-21T22:35:09.610Z,100196.94
2022-08-21T22:40:12.953Z,100237.16
2022-08-21T22:45:23.957Z,100232.91
2022-08-21T22:50:33.468Z,100253.41
2022-08-21T22:55:46.655Z,100263.22
2022-08-21T23:01:26.202Z,100262.72
2022-08-21T23:06:52.731Z,100278.47
2022-08-21T23:11:53.209Z,100256.88
2022-08-21T23:17:17.725Z,100260.84
2022-08-21T23:22:28.793Z,100286.94
2022-08-21T23:27:54.123Z,100240.28
2022-08-21T23:33:22.851Z,100276.53
2022-08-21T23:38:53.234Z,100274.66
2022-08-21T23:44:06.976Z,100275.19
2022-08-21T23:49:17.690Z,100276.13
2022-08-21T23:54:42.751Z,100300.13
